sensor_id;sensor_type;location;lat;lon;timestamp;P1;durP1;ratioP1;P2;durP2;ratioP2
7903;SDS011;3997;48.416;8.512;2024-03-06T00:00:39;2.80;;;2.22;;
7903;SDS011;3997;48.416;8.512;2024-03-06T00:03:05;3.42;;;2.50;;
7903;SDS011;3997;48.416;8.512;2024-03-06T00:05:31;3.85;;;2.45;;
7903;SDS011;3997;48.416;8.512;2024-03-06T00:07:58;3.53;;;2.30;;
7903;SDS011;3997;48.416;8.512;2024-03-06T00:10:25;4.07;;;2.47;;
7903;SDS011;3997;48.416;8.512;2024-03-06T00:12:52;4.22;;;2.83;;
7903;SDS011;3997;48.416;8.512;2024-03-06T00:15:20;2.00;;;1.90;;
7903;SDS011;3997;48.416;8.512;2024-03-06T00:17:46;3.65;;;1.73;;
7903;SDS011;3997;48.416;8.512;2024-03-06T00:20:13;3.65;;;2.10;;
7903;SDS011;3997;48.416;8.512;2024-03-06T00:22:39;3.58;;;2.38;;
7903;SDS011;3997;48.416;8.512;2024-03-06T00:25:06;1.83;;;1.73;;
7903;SDS011;3997;48.416;8.512;2024-03-06T00:27:33;3.72;;;2.00;;
7903;SDS011;3997;48.416;8.512;2024-03-06T00:30:00;1.85;;;1.75;;
7903;SDS011;3997;48.416;8.512;2024-03-06T00:32:27;2.33;;;1.85;;
7903;SDS011;3997;48.416;8.512;2024-03-06T00:34:54;2.65;;;1.88;;
7903;SDS011;3997;48.416;8.512;2024-03-06T00:37:21;1.88;;;1.67;;
7903;SDS011;3997;48.416;8.512;2024-03-06T00:39:47;2.00;;;1.85;;
7903;SDS011;3997;48.416;8.512;2024-03-06T00:42:13;2.85;;;1.80;;
7903;SDS011;3997;48.416;8.512;2024-03-06T00:44:40;2.15;;;1.83;;
7903;SDS011;3997;48.416;8.512;2024-03-06T00:47:07;2.17;;;2.08;;
7903;SDS011;3997;48.416;8.512;2024-03-06T00:49:35;3.97;;;1.92;;
7903;SDS011;3997;48.416;8.512;2024-03-06T00:52:01;3.35;;;1.90;;
7903;SDS011;3997;48.416;8.512;2024-03-06T00:54:29;2.22;;;2.00;;
7903;SDS011;3997;48.416;8.512;2024-03-06T00:56:55;1.70;;;1.60;;
7903;SDS011;3997;48.416;8.512;2024-03-06T00:59:22;2.10;;;1.90;;
7903;SDS011;3997;48.416;8.512;2024-03-06T01:01:49;3.55;;;1.90;;
7903;SDS011;3997;48.416;8.512;2024-03-06T01:04:15;2.15;;;1.63;;
7903;SDS011;3997;48.416;8.512;2024-03-06T01:06:43;2.88;;;1.60;;
7903;SDS011;3997;48.416;8.512;2024-03-06T01:09:11;1.90;;;1.80;;
7903;SDS011;3997;48.416;8.512;2024-03-06T01:11:37;2.08;;;1.55;;
7903;SDS011;3997;48.416;8.512;2024-03-06T01:14:04;2.45;;;1.63;;
7903;SDS011;3997;48.416;8.512;2024-03-06T01:16:31;1.95;;;1.60;;
7903;SDS011;3997;48.416;8.512;2024-03-06T01:18:57;2.15;;;1.58;;
7903;SDS011;3997;48.416;8.512;2024-03-06T01:21:24;2.58;;;1.50;;
7903;SDS011;3997;48.416;8.512;2024-03-06T01:23:51;2.88;;;1.83;;
7903;SDS011;3997;48.416;8.512;2024-03-06T01:26:18;2.00;;;1.67;;
7903;SDS011;3997;48.416;8.512;2024-03-06T01:28:44;1.50;;;1.40;;
7903;SDS011;3997;48.416;8.512;2024-03-06T01:31:11;3.20;;;1.75;;
7903;SDS011;3997;48.416;8.512;2024-03-06T01:33:37;1.80;;;1.70;;
7903;SDS011;3997;48.416;8.512;2024-03-06T01:36:04;3.22;;;1.60;;
7903;SDS011;3997;48.416;8.512;2024-03-06T01:38:31;2.05;;;1.63;;
7903;SDS011;3997;48.416;8.512;2024-03-06T01:40:58;1.20;;;1.20;;
7903;SDS011;3997;48.416;8.512;2024-03-06T01:43:25;2.05;;;1.30;;
7903;SDS011;3997;48.416;8.512;2024-03-06T01:45:52;2.55;;;1.67;;
7903;SDS011;3997;48.416;8.512;2024-03-06T01:48:20;1.60;;;1.50;;
7903;SDS011;3997;48.416;8.512;2024-03-06T01:50:47;2.85;;;1.70;;
7903;SDS011;3997;48.416;8.512;2024-03-06T01:53:14;1.20;;;1.10;;
7903;SDS011;3997;48.416;8.512;2024-03-06T01:55:42;1.58;;;1.38;;
7903;SDS011;3997;48.416;8.512;2024-03-06T01:58:10;1.95;;;1.40;;
7903;SDS011;3997;48.416;8.512;2024-03-06T02:00:37;1.60;;;1.50;;
7903;SDS011;3997;48.416;8.512;2024-03-06T02:03:03;2.80;;;1.48;;
7903;SDS011;3997;48.416;8.512;2024-03-06T02:05:30;3.50;;;1.50;;
7903;SDS011;3997;48.416;8.512;2024-03-06T02:07:57;2.03;;;1.38;;
7903;SDS011;3997;48.416;8.512;2024-03-06T02:10:24;1.20;;;1.10;;
7903;SDS011;3997;48.416;8.512;2024-03-06T02:12:51;3.13;;;1.38;;
7903;SDS011;3997;48.416;8.512;2024-03-06T02:15:19;2.38;;;1.50;;
7903;SDS011;3997;48.416;8.512;2024-03-06T02:17:45;1.40;;;1.30;;
7903;SDS011;3997;48.416;8.512;2024-03-06T02:20:12;1.65;;;1.55;;
7903;SDS011;3997;48.416;8.512;2024-03-06T02:22:40;1.70;;;1.60;;
7903;SDS011;3997;48.416;8.512;2024-03-06T02:25:07;1.65;;;1.55;;
7903;SDS011;3997;48.416;8.512;2024-03-06T02:27:34;1.60;;;1.50;;
7903;SDS011;3997;48.416;8.512;2024-03-06T02:30:00;1.45;;;1.20;;
7903;SDS011;3997;48.416;8.512;2024-03-06T02:32:27;1.60;;;1.50;;
7903;SDS011;3997;48.416;8.512;2024-03-06T02:34:54;3.15;;;1.90;;
7903;SDS011;3997;48.416;8.512;2024-03-06T02:37:20;1.80;;;1.70;;
7903;SDS011;3997;48.416;8.512;2024-03-06T02:39:48;1.90;;;1.80;;
7903;SDS011;3997;48.416;8.512;2024-03-06T02:42:15;2.03;;;1.83;;
7903;SDS011;3997;48.416;8.512;2024-03-06T02:44:42;1.60;;;1.50;;
7903;SDS011;3997;48.416;8.512;2024-03-06T02:47:08;1.92;;;1.80;;
7903;SDS011;3997;48.416;8.512;2024-03-06T02:49:35;1.50;;;1.40;;
7903;SDS011;3997;48.416;8.512;2024-03-06T02:52:01;1.80;;;1.60;;
7903;SDS011;3997;48.416;8.512;2024-03-06T02:54:28;3.40;;;1.50;;
7903;SDS011;3997;48.416;8.512;2024-03-06T02:56:56;1.95;;;1.42;;
7903;SDS011;3997;48.416;8.512;2024-03-06T02:59:23;2.35;;;1.70;;
7903;SDS011;3997;48.416;8.512;2024-03-06T03:01:49;1.58;;;1.48;;
7903;SDS011;3997;48.416;8.512;2024-03-06T03:04:15;2.60;;;1.75;;
7903;SDS011;3997;48.416;8.512;2024-03-06T03:06:42;1.63;;;1.50;;
7903;SDS011;3997;48.416;8.512;2024-03-06T03:09:08;2.92;;;1.80;;
7903;SDS011;3997;48.416;8.512;2024-03-06T03:11:37;2.47;;;1.90;;
7903;SDS011;3997;48.416;8.512;2024-03-06T03:14:05;1.60;;;1.50;;
7903;SDS011;3997;48.416;8.512;2024-03-06T03:16:31;2.22;;;1.70;;
7903;SDS011;3997;48.416;8.512;2024-03-06T03:18:58;1.90;;;1.60;;
7903;SDS011;3997;48.416;8.512;2024-03-06T03:21:24;1.73;;;1.63;;
7903;SDS011;3997;48.416;8.512;2024-03-06T03:23:51;1.60;;;1.50;;
7903;SDS011;3997;48.416;8.512;2024-03-06T03:26:18;1.98;;;1.70;;
7903;SDS011;3997;48.416;8.512;2024-03-06T03:28:44;1.80;;;1.70;;
7903;SDS011;3997;48.416;8.512;2024-03-06T03:31:12;1.80;;;1.70;;
7903;SDS011;3997;48.416;8.512;2024-03-06T03:33:38;2.75;;;1.90;;
7903;SDS011;3997;48.416;8.512;2024-03-06T03:36:05;1.50;;;1.40;;
7903;SDS011;3997;48.416;8.512;2024-03-06T03:38:32;3.75;;;2.00;;
7903;SDS011;3997;48.416;8.512;2024-03-06T03:41:01;2.28;;;1.77;;
7903;SDS011;3997;48.416;8.512;2024-03-06T03:43:29;2.92;;;1.65;;
7903;SDS011;3997;48.416;8.512;2024-03-06T03:45:55;1.40;;;1.30;;
7903;SDS011;3997;48.416;8.512;2024-03-06T03:48:23;1.98;;;1.83;;
7903;SDS011;3997;48.416;8.512;2024-03-06T03:50:50;2.10;;;1.80;;
7903;SDS011;3997;48.416;8.512;2024-03-06T03:53:16;1.73;;;1.63;;
7903;SDS011;3997;48.416;8.512;2024-03-06T03:55:43;4.80;;;1.88;;
7903;SDS011;3997;48.416;8.512;2024-03-06T03:58:09;1.50;;;1.40;;
7903;SDS011;3997;48.416;8.512;2024-03-06T04:00:35;1.67;;;1.40;;
7903;SDS011;3997;48.416;8.512;2024-03-06T04:03:03;1.30;;;1.20;;
7903;SDS011;3997;48.416;8.512;2024-03-06T04:05:31;3.00;;;1.58;;
7903;SDS011;3997;48.416;8.512;2024-03-06T04:07:58;1.88;;;1.77;;
7903;SDS011;3997;48.416;8.512;2024-03-06T04:10:24;2.20;;;2.00;;
7903;SDS011;3997;48.416;8.512;2024-03-06T04:12:50;1.98;;;1.88;;
7903;SDS011;3997;48.416;8.512;2024-03-06T04:15:18;1.80;;;1.70;;
7903;SDS011;3997;48.416;8.512;2024-03-06T04:17:45;2.65;;;1.80;;
7903;SDS011;3997;48.416;8.512;2024-03-06T04:20:11;1.70;;;1.60;;
7903;SDS011;3997;48.416;8.512;2024-03-06T04:22:39;1.80;;;1.70;;
7903;SDS011;3997;48.416;8.512;2024-03-06T04:25:06;1.70;;;1.60;;
7903;SDS011;3997;48.416;8.512;2024-03-06T04:27:33;2.08;;;1.88;;
7903;SDS011;3997;48.416;8.512;2024-03-06T04:30:00;1.85;;;1.65;;
7903;SDS011;3997;48.416;8.512;2024-03-06T04:32:27;1.90;;;1.80;;
7903;SDS011;3997;48.416;8.512;2024-03-06T04:34:53;2.72;;;1.80;;
7903;SDS011;3997;48.416;8.512;2024-03-06T04:37:21;1.70;;;1.60;;
7903;SDS011;3997;48.416;8.512;2024-03-06T04:39:49;1.98;;;1.75;;
7903;SDS011;3997;48.416;8.512;2024-03-06T04:42:15;1.90;;;1.75;;
7903;SDS011;3997;48.416;8.512;2024-03-06T04:44:42;1.92;;;1.80;;
7903;SDS011;3997;48.416;8.512;2024-03-06T04:47:08;2.05;;;1.90;;
7903;SDS011;3997;48.416;8.512;2024-03-06T04:49:35;1.75;;;1.65;;
7903;SDS011;3997;48.416;8.512;2024-03-06T04:52:04;1.73;;;1.63;;
7903;SDS011;3997;48.416;8.512;2024-03-06T04:54:31;1.90;;;1.80;;
7903;SDS011;3997;48.416;8.512;2024-03-06T04:56:59;1.70;;;1.60;;
7903;SDS011;3997;48.416;8.512;2024-03-06T04:59:26;2.72;;;1.67;;
7903;SDS011;3997;48.416;8.512;2024-03-06T05:01:52;1.65;;;1.52;;
7903;SDS011;3997;48.416;8.512;2024-03-06T05:04:19;1.73;;;1.63;;
7903;SDS011;3997;48.416;8.512;2024-03-06T05:06:46;1.60;;;1.50;;
7903;SDS011;3997;48.416;8.512;2024-03-06T05:09:13;1.60;;;1.50;;
7903;SDS011;3997;48.416;8.512;2024-03-06T05:11:40;2.28;;;1.70;;
7903;SDS011;3997;48.416;8.512;2024-03-06T05:14:10;2.65;;;2.45;;
7903;SDS011;3997;48.416;8.512;2024-03-06T05:16:36;2.78;;;2.20;;
7903;SDS011;3997;48.416;8.512;2024-03-06T05:19:03;2.13;;;1.98;;
7903;SDS011;3997;48.416;8.512;2024-03-06T05:21:31;3.80;;;2.38;;
7903;SDS011;3997;48.416;8.512;2024-03-06T05:23:59;2.30;;;1.90;;
7903;SDS011;3997;48.416;8.512;2024-03-06T05:26:25;2.00;;;1.80;;
7903;SDS011;3997;48.416;8.512;2024-03-06T05:28:51;1.13;;;1.13;;
7903;SDS011;3997;48.416;8.512;2024-03-06T05:31:19;2.10;;;1.90;;
7903;SDS011;3997;48.416;8.512;2024-03-06T05:33:47;1.95;;;1.60;;
7903;SDS011;3997;48.416;8.512;2024-03-06T05:36:13;1.75;;;1.65;;
7903;SDS011;3997;48.416;8.512;2024-03-06T05:38:40;3.33;;;1.80;;
7903;SDS011;3997;48.416;8.512;2024-03-06T05:41:06;2.05;;;1.65;;
7903;SDS011;3997;48.416;8.512;2024-03-06T05:43:33;3.28;;;1.60;;
7903;SDS011;3997;48.416;8.512;2024-03-06T05:46:00;1.52;;;1.42;;
7903;SDS011;3997;48.416;8.512;2024-03-06T05:48:28;2.67;;;2.47;;
7903;SDS011;3997;48.416;8.512;2024-03-06T05:50:54;1.70;;;1.60;;
7903;SDS011;3997;48.416;8.512;2024-03-06T05:53:21;3.78;;;2.47;;
7903;SDS011;3997;48.416;8.512;2024-03-06T05:55:48;4.82;;;3.38;;
7903;SDS011;3997;48.416;8.512;2024-03-06T05:58:14;4.60;;;3.25;;
7903;SDS011;3997;48.416;8.512;2024-03-06T06:00:41;3.03;;;2.75;;
7903;SDS011;3997;48.416;8.512;2024-03-06T06:03:08;2.13;;;1.92;;
7903;SDS011;3997;48.416;8.512;2024-03-06T06:05:38;1.90;;;1.58;;
7903;SDS011;3997;48.416;8.512;2024-03-06T06:08:05;2.00;;;1.90;;
7903;SDS011;3997;48.416;8.512;2024-03-06T06:10:31;1.98;;;1.85;;
7903;SDS011;3997;48.416;8.512;2024-03-06T06:12:58;2.83;;;1.63;;
7903;SDS011;3997;48.416;8.512;2024-03-06T06:15:24;2.13;;;1.65;;
7903;SDS011;3997;48.416;8.512;2024-03-06T06:17:51;1.92;;;1.42;;
7903;SDS011;3997;48.416;8.512;2024-03-06T06:20:17;2.53;;;2.05;;
7903;SDS011;3997;48.416;8.512;2024-03-06T06:22:45;1.90;;;1.80;;
7903;SDS011;3997;48.416;8.512;2024-03-06T06:25:11;2.15;;;1.95;;
7903;SDS011;3997;48.416;8.512;2024-03-06T06:27:38;3.50;;;2.10;;
7903;SDS011;3997;48.416;8.512;2024-03-06T06:30:05;2.47;;;2.08;;
7903;SDS011;3997;48.416;8.512;2024-03-06T06:32:36;2.83;;;2.13;;
7903;SDS011;3997;48.416;8.512;2024-03-06T06:35:03;4.28;;;2.40;;
7903;SDS011;3997;48.416;8.512;2024-03-06T06:37:30;2.97;;;2.20;;
7903;SDS011;3997;48.416;8.512;2024-03-06T06:39:58;3.90;;;2.67;;
7903;SDS011;3997;48.416;8.512;2024-03-06T06:42:27;3.55;;;3.25;;
7903;SDS011;3997;48.416;8.512;2024-03-06T06:44:54;3.13;;;2.83;;
7903;SDS011;3997;48.416;8.512;2024-03-06T06:47:20;4.07;;;3.67;;
7903;SDS011;3997;48.416;8.512;2024-03-06T06:49:47;3.85;;;3.55;;
7903;SDS011;3997;48.416;8.512;2024-03-06T06:52:14;5.55;;;3.83;;
7903;SDS011;3997;48.416;8.512;2024-03-06T06:54:40;4.38;;;3.97;;
7903;SDS011;3997;48.416;8.512;2024-03-06T06:57:08;4.85;;;3.15;;
7903;SDS011;3997;48.416;8.512;2024-03-06T06:59:35;4.53;;;3.63;;
7903;SDS011;3997;48.416;8.512;2024-03-06T07:02:01;4.03;;;3.55;;
7903;SDS011;3997;48.416;8.512;2024-03-06T07:04:28;6.32;;;3.60;;
7903;SDS011;3997;48.416;8.512;2024-03-06T07:06:54;4.20;;;3.60;;
7903;SDS011;3997;48.416;8.512;2024-03-06T07:09:21;3.72;;;3.08;;
7903;SDS011;3997;48.416;8.512;2024-03-06T07:11:47;3.10;;;2.80;;
7903;SDS011;3997;48.416;8.512;2024-03-06T07:14:16;4.07;;;3.47;;
7903;SDS011;3997;48.416;8.512;2024-03-06T07:16:42;3.15;;;2.85;;
7903;SDS011;3997;48.416;8.512;2024-03-06T07:19:09;3.42;;;2.88;;
7903;SDS011;3997;48.416;8.512;2024-03-06T07:21:35;3.50;;;2.80;;
7903;SDS011;3997;48.416;8.512;2024-03-06T07:24:02;2.83;;;2.50;;
7903;SDS011;3997;48.416;8.512;2024-03-06T07:26:29;4.88;;;2.60;;
7903;SDS011;3997;48.416;8.512;2024-03-06T07:28:55;3.17;;;2.67;;
7903;SDS011;3997;48.416;8.512;2024-03-06T07:31:24;3.90;;;2.70;;
7903;SDS011;3997;48.416;8.512;2024-03-06T07:33:51;2.90;;;2.70;;
7903;SDS011;3997;48.416;8.512;2024-03-06T07:36:18;3.45;;;2.20;;
7903;SDS011;3997;48.416;8.512;2024-03-06T07:38:45;5.05;;;3.30;;
7903;SDS011;3997;48.416;8.512;2024-03-06T07:41:11;2.95;;;2.40;;
7903;SDS011;3997;48.416;8.512;2024-03-06T07:43:37;3.88;;;2.63;;
7903;SDS011;3997;48.416;8.512;2024-03-06T07:46:04;2.92;;;2.63;;
7903;SDS011;3997;48.416;8.512;2024-03-06T07:48:37;2.75;;;2.55;;
7903;SDS011;3997;48.416;8.512;2024-03-06T07:51:03;3.75;;;2.72;;
7903;SDS011;3997;48.416;8.512;2024-03-06T07:53:30;3.22;;;2.80;;
7903;SDS011;3997;48.416;8.512;2024-03-06T07:55:57;3.30;;;3.00;;
7903;SDS011;3997;48.416;8.512;2024-03-06T07:58:23;4.50;;;3.17;;
7903;SDS011;3997;48.416;8.512;2024-03-06T08:00:49;3.50;;;3.10;;
7903;SDS011;3997;48.416;8.512;2024-03-06T08:03:17;4.97;;;4.10;;
7903;SDS011;3997;48.416;8.512;2024-03-06T08:05:45;4.93;;;3.72;;
7903;SDS011;3997;48.416;8.512;2024-03-06T08:08:12;4.05;;;3.38;;
7903;SDS011;3997;48.416;8.512;2024-03-06T08:10:38;5.57;;;2.88;;
7903;SDS011;3997;48.416;8.512;2024-03-06T08:13:05;4.47;;;4.05;;
7903;SDS011;3997;48.416;8.512;2024-03-06T08:15:31;5.60;;;4.18;;
7903;SDS011;3997;48.416;8.512;2024-03-06T08:17:57;4.65;;;3.95;;
7903;SDS011;3997;48.416;8.512;2024-03-06T08:20:24;3.97;;;3.58;;
7903;SDS011;3997;48.416;8.512;2024-03-06T08:22:52;3.88;;;3.47;;
7903;SDS011;3997;48.416;8.512;2024-03-06T08:25:18;5.47;;;3.47;;
7903;SDS011;3997;48.416;8.512;2024-03-06T08:27:44;4.22;;;3.83;;
7903;SDS011;3997;48.416;8.512;2024-03-06T08:30:11;4.10;;;3.70;;
7903;SDS011;3997;48.416;8.512;2024-03-06T08:32:38;4.15;;;3.75;;
7903;SDS011;3997;48.416;8.512;2024-03-06T08:35:05;5.30;;;4.38;;
7903;SDS011;3997;48.416;8.512;2024-03-06T08:37:31;5.75;;;3.95;;
7903;SDS011;3997;48.416;8.512;2024-03-06T08:40:00;4.20;;;3.70;;
7903;SDS011;3997;48.416;8.512;2024-03-06T08:42:27;5.75;;;4.50;;
7903;SDS011;3997;48.416;8.512;2024-03-06T08:44:53;7.05;;;4.75;;
7903;SDS011;3997;48.416;8.512;2024-03-06T08:47:20;5.28;;;4.30;;
7903;SDS011;3997;48.416;8.512;2024-03-06T08:49:46;4.07;;;3.67;;
7903;SDS011;3997;48.416;8.512;2024-03-06T08:52:13;5.20;;;4.50;;
7903;SDS011;3997;48.416;8.512;2024-03-06T08:54:39;4.75;;;4.03;;
7903;SDS011;3997;48.416;8.512;2024-03-06T08:57:08;5.30;;;4.32;;
7903;SDS011;3997;48.416;8.512;2024-03-06T08:59:34;6.13;;;4.28;;
7903;SDS011;3997;48.416;8.512;2024-03-06T09:02:12;5.10;;;3.70;;
7903;SDS011;3997;48.416;8.512;2024-03-06T09:04:39;5.85;;;3.78;;
7903;SDS011;3997;48.416;8.512;2024-03-06T09:07:05;5.80;;;3.88;;
7903;SDS011;3997;48.416;8.512;2024-03-06T09:09:32;4.28;;;3.40;;
7903;SDS011;3997;48.416;8.512;2024-03-06T09:11:59;4.65;;;3.50;;
7903;SDS011;3997;48.416;8.512;2024-03-06T09:14:26;4.13;;;3.45;;
7903;SDS011;3997;48.416;8.512;2024-03-06T09:16:53;5.00;;;3.28;;
7903;SDS011;3997;48.416;8.512;2024-03-06T09:19:20;3.83;;;3.35;;
7903;SDS011;3997;48.416;8.512;2024-03-06T09:21:48;5.60;;;3.85;;
7903;SDS011;3997;48.416;8.512;2024-03-06T09:24:14;5.15;;;3.88;;
7903;SDS011;3997;48.416;8.512;2024-03-06T09:26:41;3.63;;;3.25;;
7903;SDS011;3997;48.416;8.512;2024-03-06T09:29:07;3.63;;;2.95;;
7903;SDS011;3997;48.416;8.512;2024-03-06T09:31:37;3.30;;;3.00;;
7903;SDS011;3997;48.416;8.512;2024-03-06T09:34:03;3.28;;;2.95;;
7903;SDS011;3997;48.416;8.512;2024-03-06T09:36:30;3.17;;;2.85;;
7903;SDS011;3997;48.416;8.512;2024-03-06T09:38:58;3.10;;;2.80;;
7903;SDS011;3997;48.416;8.512;2024-03-06T09:41:25;3.83;;;2.35;;
7903;SDS011;3997;48.416;8.512;2024-03-06T09:43:52;2.70;;;2.40;;
7903;SDS011;3997;48.416;8.512;2024-03-06T09:46:18;3.10;;;2.75;;
7903;SDS011;3997;48.416;8.512;2024-03-06T09:48:47;2.65;;;2.45;;
7903;SDS011;3997;48.416;8.512;2024-03-06T09:51:13;2.55;;;2.30;;
7903;SDS011;3997;48.416;8.512;2024-03-06T09:53:40;2.63;;;2.42;;
7903;SDS011;3997;48.416;8.512;2024-03-06T09:56:08;4.03;;;2.97;;
7903;SDS011;3997;48.416;8.512;2024-03-06T09:58:37;2.15;;;1.92;;
7903;SDS011;3997;48.416;8.512;2024-03-06T10:01:06;5.28;;;2.50;;
7903;SDS011;3997;48.416;8.512;2024-03-06T10:03:34;3.05;;;2.65;;
7903;SDS011;3997;48.416;8.512;2024-03-06T10:06:02;2.38;;;2.17;;
7903;SDS011;3997;48.416;8.512;2024-03-06T10:08:29;3.25;;;1.95;;
7903;SDS011;3997;48.416;8.512;2024-03-06T10:10:57;2.33;;;2.13;;
7903;SDS011;3997;48.416;8.512;2024-03-06T10:13:24;2.30;;;2.10;;
7903;SDS011;3997;48.416;8.512;2024-03-06T10:15:56;2.83;;;2.17;;
7903;SDS011;3997;48.416;8.512;2024-03-06T10:18:22;2.35;;;2.15;;
7903;SDS011;3997;48.416;8.512;2024-03-06T10:20:52;2.33;;;2.03;;
7903;SDS011;3997;48.416;8.512;2024-03-06T10:23:20;2.53;;;2.20;;
7903;SDS011;3997;48.416;8.512;2024-03-06T10:25:47;2.10;;;2.00;;
7903;SDS011;3997;48.416;8.512;2024-03-06T10:28:17;2.53;;;2.17;;
7903;SDS011;3997;48.416;8.512;2024-03-06T10:30:44;2.05;;;1.70;;
7903;SDS011;3997;48.416;8.512;2024-03-06T10:33:11;2.35;;;2.10;;
7903;SDS011;3997;48.416;8.512;2024-03-06T10:35:39;3.25;;;2.17;;
7903;SDS011;3997;48.416;8.512;2024-03-06T10:38:06;2.05;;;1.80;;
7903;SDS011;3997;48.416;8.512;2024-03-06T10:40:34;2.72;;;1.73;;
7903;SDS011;3997;48.416;8.512;2024-03-06T10:43:02;2.70;;;1.95;;
7903;SDS011;3997;48.416;8.512;2024-03-06T10:45:31;1.70;;;1.60;;
7903;SDS011;3997;48.416;8.512;2024-03-06T10:47:59;2.17;;;1.70;;
7903;SDS011;3997;48.416;8.512;2024-03-06T10:50:27;1.75;;;1.65;;
7903;SDS011;3997;48.416;8.512;2024-03-06T10:52:53;1.58;;;1.48;;
7903;SDS011;3997;48.416;8.512;2024-03-06T10:55:21;2.08;;;1.73;;
7903;SDS011;3997;48.416;8.512;2024-03-06T10:57:50;2.30;;;1.80;;
7903;SDS011;3997;48.416;8.512;2024-03-06T11:00:18;2.25;;;1.70;;
7903;SDS011;3997;48.416;8.512;2024-03-06T11:02:46;1.55;;;1.42;;
7903;SDS011;3997;48.416;8.512;2024-03-06T11:05:14;1.55;;;1.45;;
7903;SDS011;3997;48.416;8.512;2024-03-06T11:07:40;1.48;;;1.38;;
7903;SDS011;3997;48.416;8.512;2024-03-06T11:10:08;1.75;;;1.50;;
7903;SDS011;3997;48.416;8.512;2024-03-06T11:12:41;1.95;;;1.52;;
7903;SDS011;3997;48.416;8.512;2024-03-06T11:15:12;1.70;;;1.10;;
7903;SDS011;3997;48.416;8.512;2024-03-06T11:17:39;1.20;;;1.08;;
7903;SDS011;3997;48.416;8.512;2024-03-06T11:20:12;2.03;;;1.35;;
7903;SDS011;3997;48.416;8.512;2024-03-06T11:28:12;1.33;;;1.23;;
7903;SDS011;3997;48.416;8.512;2024-03-06T11:30:45;1.60;;;1.50;;
7903;SDS011;3997;48.416;8.512;2024-03-06T11:33:12;1.85;;;1.20;;
7903;SDS011;3997;48.416;8.512;2024-03-06T11:35:40;1.63;;;1.40;;
7903;SDS011;3997;48.416;8.512;2024-03-06T11:38:09;1.40;;;1.27;;
7903;SDS011;3997;48.416;8.512;2024-03-06T11:40:42;1.77;;;1.50;;
7903;SDS011;3997;48.416;8.512;2024-03-06T11:43:21;1.90;;;1.80;;
7903;SDS011;3997;48.416;8.512;2024-03-06T11:45:49;1.80;;;1.35;;
7903;SDS011;3997;48.416;8.512;2024-03-06T11:48:16;1.65;;;1.52;;
7903;SDS011;3997;48.416;8.512;2024-03-06T11:50:44;1.23;;;1.13;;
7903;SDS011;3997;48.416;8.512;2024-03-06T11:53:11;1.42;;;1.23;;
7903;SDS011;3997;48.416;8.512;2024-03-06T11:55:38;1.30;;;1.20;;
7903;SDS011;3997;48.416;8.512;2024-03-06T11:58:05;1.45;;;1.25;;
7903;SDS011;3997;48.416;8.512;2024-03-06T12:00:33;2.83;;;1.33;;
7903;SDS011;3997;48.416;8.512;2024-03-06T12:03:01;1.48;;;1.38;;
7903;SDS011;3997;48.416;8.512;2024-03-06T12:05:29;1.35;;;1.25;;
7903;SDS011;3997;48.416;8.512;2024-03-06T12:07:55;1.40;;;1.30;;
7903;SDS011;3997;48.416;8.512;2024-03-06T12:10:22;1.30;;;1.20;;
7903;SDS011;3997;48.416;8.512;2024-03-06T12:12:48;2.80;;;1.60;;
7903;SDS011;3997;48.416;8.512;2024-03-06T12:15:15;1.48;;;1.38;;
7903;SDS011;3997;48.416;8.512;2024-03-06T12:17:44;1.58;;;1.42;;
7903;SDS011;3997;48.416;8.512;2024-03-06T12:20:13;3.03;;;1.38;;
7903;SDS011;3997;48.416;8.512;2024-03-06T12:22:44;1.40;;;1.30;;
7903;SDS011;3997;48.416;8.512;2024-03-06T12:25:10;1.63;;;1.20;;
7903;SDS011;3997;48.416;8.512;2024-03-06T12:27:43;1.95;;;1.40;;
7903;SDS011;3997;48.416;8.512;2024-03-06T12:30:10;1.42;;;1.33;;
7903;SDS011;3997;48.416;8.512;2024-03-06T12:32:38;1.75;;;1.30;;
7903;SDS011;3997;48.416;8.512;2024-03-06T12:35:05;1.50;;;1.35;;
7903;SDS011;3997;48.416;8.512;2024-03-06T12:37:33;1.55;;;1.45;;
7903;SDS011;3997;48.416;8.512;2024-03-06T12:39:59;4.03;;;1.27;;
7903;SDS011;3997;48.416;8.512;2024-03-06T12:42:26;3.42;;;1.30;;
7903;SDS011;3997;48.416;8.512;2024-03-06T12:44:53;2.03;;;1.38;;
7903;SDS011;3997;48.416;8.512;2024-03-06T12:47:20;1.30;;;1.20;;
7903;SDS011;3997;48.416;8.512;2024-03-06T12:49:47;1.50;;;1.40;;
7903;SDS011;3997;48.416;8.512;2024-03-06T12:52:15;2.10;;;1.30;;
7903;SDS011;3997;48.416;8.512;2024-03-06T12:54:43;1.30;;;1.13;;
7903;SDS011;3997;48.416;8.512;2024-03-06T12:57:09;3.78;;;1.42;;
7903;SDS011;3997;48.416;8.512;2024-03-06T12:59:36;1.48;;;1.38;;
7903;SDS011;3997;48.416;8.512;2024-03-06T13:02:02;1.40;;;1.30;;
7903;SDS011;3997;48.416;8.512;2024-03-06T13:04:29;1.48;;;1.38;;
7903;SDS011;3997;48.416;8.512;2024-03-06T13:06:55;1.60;;;1.50;;
7903;SDS011;3997;48.416;8.512;2024-03-06T13:09:22;2.65;;;1.60;;
7903;SDS011;3997;48.416;8.512;2024-03-06T13:11:51;1.15;;;1.05;;
7903;SDS011;3997;48.416;8.512;2024-03-06T13:14:17;1.63;;;1.40;;
7903;SDS011;3997;48.416;8.512;2024-03-06T13:16:44;1.13;;;1.02;;
7903;SDS011;3997;48.416;8.512;2024-03-06T13:19:10;2.08;;;1.33;;
7903;SDS011;3997;48.416;8.512;2024-03-06T13:21:37;1.30;;;1.20;;
7903;SDS011;3997;48.416;8.512;2024-03-06T13:24:04;1.10;;;1.00;;
7903;SDS011;3997;48.416;8.512;2024-03-06T13:26:30;1.30;;;1.00;;
7903;SDS011;3997;48.416;8.512;2024-03-06T13:28:58;4.20;;;1.75;;
7903;SDS011;3997;48.416;8.512;2024-03-06T13:31:25;2.78;;;1.83;;
7903;SDS011;3997;48.416;8.512;2024-03-06T13:33:51;1.52;;;1.35;;
7903;SDS011;3997;48.416;8.512;2024-03-06T13:36:18;1.60;;;1.33;;
7903;SDS011;3997;48.416;8.512;2024-03-06T13:38:45;1.45;;;1.33;;
7903;SDS011;3997;48.416;8.512;2024-03-06T13:41:11;1.42;;;1.30;;
7903;SDS011;3997;48.416;8.512;2024-03-06T13:43:38;1.77;;;1.40;;
7903;SDS011;3997;48.416;8.512;2024-03-06T13:46:06;1.83;;;1.20;;
7903;SDS011;3997;48.416;8.512;2024-03-06T13:48:32;3.83;;;1.40;;
7903;SDS011;3997;48.416;8.512;2024-03-06T13:50:59;2.17;;;1.50;;
7903;SDS011;3997;48.416;8.512;2024-03-06T13:53:25;2.42;;;1.20;;
7903;SDS011;3997;48.416;8.512;2024-03-06T13:55:52;2.42;;;1.38;;
7903;SDS011;3997;48.416;8.512;2024-03-06T13:58:18;1.60;;;1.38;;
7903;SDS011;3997;48.416;8.512;2024-03-06T14:00:45;2.97;;;1.27;;
7903;SDS011;3997;48.416;8.512;2024-03-06T14:03:12;1.52;;;1.42;;
7903;SDS011;3997;48.416;8.512;2024-03-06T14:05:41;1.60;;;1.50;;
7903;SDS011;3997;48.416;8.512;2024-03-06T14:08:08;1.83;;;1.30;;
7903;SDS011;3997;48.416;8.512;2024-03-06T14:10:38;2.92;;;1.83;;
7903;SDS011;3997;48.416;8.512;2024-03-06T14:13:05;1.77;;;1.67;;
7903;SDS011;3997;48.416;8.512;2024-03-06T14:15:32;1.70;;;1.60;;
7903;SDS011;3997;48.416;8.512;2024-03-06T14:17:59;1.60;;;1.50;;
7903;SDS011;3997;48.416;8.512;2024-03-06T14:20:28;1.75;;;1.50;;
7903;SDS011;3997;48.416;8.512;2024-03-06T14:22:58;1.83;;;1.70;;
7903;SDS011;3997;48.416;8.512;2024-03-06T14:25:24;1.80;;;1.70;;
7903;SDS011;3997;48.416;8.512;2024-03-06T14:27:51;1.95;;;1.63;;
7903;SDS011;3997;48.416;8.512;2024-03-06T14:30:17;1.83;;;1.60;;
7903;SDS011;3997;48.416;8.512;2024-03-06T14:32:45;2.15;;;1.95;;
7903;SDS011;3997;48.416;8.512;2024-03-06T14:35:11;2.80;;;1.80;;
7903;SDS011;3997;48.416;8.512;2024-03-06T14:37:40;2.25;;;1.77;;
7903;SDS011;3997;48.416;8.512;2024-03-06T14:40:07;2.33;;;2.10;;
7903;SDS011;3997;48.416;8.512;2024-03-06T14:42:33;2.60;;;2.40;;
7903;SDS011;3997;48.416;8.512;2024-03-06T14:45:00;2.90;;;2.50;;
7903;SDS011;3997;48.416;8.512;2024-03-06T14:47:30;2.33;;;1.90;;
7903;SDS011;3997;48.416;8.512;2024-03-06T14:49:56;2.33;;;2.00;;
7903;SDS011;3997;48.416;8.512;2024-03-06T14:52:24;3.13;;;2.58;;
7903;SDS011;3997;48.416;8.512;2024-03-06T14:54:53;2.90;;;2.55;;
7903;SDS011;3997;48.416;8.512;2024-03-06T14:57:19;2.95;;;2.55;;
7903;SDS011;3997;48.416;8.512;2024-03-06T14:59:48;2.92;;;2.40;;
7903;SDS011;3997;48.416;8.512;2024-03-06T15:02:15;2.80;;;2.60;;
7903;SDS011;3997;48.416;8.512;2024-03-06T15:04:41;4.68;;;3.10;;
7903;SDS011;3997;48.416;8.512;2024-03-06T15:07:08;2.70;;;2.50;;
7903;SDS011;3997;48.416;8.512;2024-03-06T15:09:35;3.92;;;3.60;;
7903;SDS011;3997;48.416;8.512;2024-03-06T15:12:03;3.10;;;2.70;;
7903;SDS011;3997;48.416;8.512;2024-03-06T15:14:29;4.90;;;3.65;;
7903;SDS011;3997;48.416;8.512;2024-03-06T15:16:56;3.17;;;2.88;;
7903;SDS011;3997;48.416;8.512;2024-03-06T15:19:23;3.00;;;2.80;;